sensor_id;sensor_type;location;lat;lon;timestamp;temperature;humidity
30037;DHT22;36325;51.512;-0.382;2023-02-26T00:01:30;3.50;99.90
30037;DHT22;36325;51.512;-0.382;2023-02-26T00:04:00;3.50;99.90
30037;DHT22;36325;51.512;-0.382;2023-02-26T00:06:30;3.40;99.90
30037;DHT22;36325;51.512;-0.382;2023-02-26T00:11:25;3.40;99.90
30037;DHT22;36325;51.512;-0.382;2023-02-26T00:13:52;3.30;99.90
30037;DHT22;36325;51.512;-0.382;2023-02-26T00:18:58;3.20;99.90
30037;DHT22;36325;51.512;-0.382;2023-02-26T00:21:27;3.20;99.90
30037;DHT22;36325;51.512;-0.382;2023-02-26T00:23:55;3.20;99.90
30037;DHT22;36325;51.512;-0.382;2023-02-26T00:26:24;3.20;99.90
30037;DHT22;36325;51.512;-0.382;2023-02-26T00:28:53;3.10;99.90
30037;DHT22;36325;51.512;-0.382;2023-02-26T00:31:21;3.10;99.90
30037;DHT22;36325;51.512;-0.382;2023-02-26T00:33:52;3.10;99.90
30037;DHT22;36325;51.512;-0.382;2023-02-26T00:41:33;3.00;99.90
30037;DHT22;36325;51.512;-0.382;2023-02-26T00:44:02;2.90;99.90
30037;DHT22;36325;51.512;-0.382;2023-02-26T00:46:49;2.90;99.90
30037;DHT22;36325;51.512;-0.382;2023-02-26T00:52:28;2.90;99.90
30037;DHT22;36325;51.512;-0.382;2023-02-26T00:54:57;3.20;99.90
30037;DHT22;36325;51.512;-0.382;2023-02-26T00:57:24;2.80;99.90
30037;DHT22;36325;51.512;-0.382;2023-02-26T00:59:52;2.80;99.90
30037;DHT22;36325;51.512;-0.382;2023-02-26T01:02:19;2.70;99.90
30037;DHT22;36325;51.512;-0.382;2023-02-26T01:04:46;2.70;99.90
30037;DHT22;36325;51.512;-0.382;2023-02-26T01:07:14;2.70;99.90
30037;DHT22;36325;51.512;-0.382;2023-02-26T01:09:45;2.70;99.90
30037;DHT22;36325;51.512;-0.382;2023-02-26T01:12:13;2.80;99.90
30037;DHT22;36325;51.512;-0.382;2023-02-26T01:14:41;2.80;99.90
30037;DHT22;36325;51.512;-0.382;2023-02-26T01:17:26;2.80;99.90
30037;DHT22;36325;51.512;-0.382;2023-02-26T01:20:24;2.80;99.90
30037;DHT22;36325;51.512;-0.382;2023-02-26T01:23:17;2.80;99.90
30037;DHT22;36325;51.512;-0.382;2023-02-26T01:28:15;2.70;99.90
30037;DHT22;36325;51.512;-0.382;2023-02-26T01:30:42;2.70;99.90
30037;DHT22;36325;51.512;-0.382;2023-02-26T01:36:05;2.70;99.90
30037;DHT22;36325;51.512;-0.382;2023-02-26T01:47:12;2.70;99.90
30037;DHT22;36325;51.512;-0.382;2023-02-26T01:49:41;2.60;99.90
30037;DHT22;36325;51.512;-0.382;2023-02-26T01:54:59;2.60;99.90
30037;DHT22;36325;51.512;-0.382;2023-02-26T01:57:26;2.60;99.90
30037;DHT22;36325;51.512;-0.382;2023-02-26T01:59:54;2.60;99.90
30037;DHT22;36325;51.512;-0.382;2023-02-26T02:02:23;2.60;99.90
30037;DHT22;36325;51.512;-0.382;2023-02-26T02:04:52;2.70;99.90
30037;DHT22;36325;51.512;-0.382;2023-02-26T02:07:19;2.70;99.90
30037;DHT22;36325;51.512;-0.382;2023-02-26T02:09:46;2.70;99.90
30037;DHT22;36325;51.512;-0.382;2023-02-26T02:15:24;2.70;99.90
30037;DHT22;36325;51.512;-0.382;2023-02-26T02:21:34;2.70;99.90
30037;DHT22;36325;51.512;-0.382;2023-02-26T02:24:24;2.70;99.90
30037;DHT22;36325;51.512;-0.382;2023-02-26T02:35:19;2.70;99.90
30037;DHT22;36325;51.512;-0.382;2023-02-26T02:40:31;2.70;99.90
30037;DHT22;36325;51.512;-0.382;2023-02-26T02:43:09;2.70;99.90
30037;DHT22;36325;51.512;-0.382;2023-02-26T02:46:05;2.60;99.90
30037;DHT22;36325;51.512;-0.382;2023-02-26T02:48:48;2.60;99.90
30037;DHT22;36325;51.512;-0.382;2023-02-26T02:51:20;2.60;99.90
30037;DHT22;36325;51.512;-0.382;2023-02-26T02:53:54;2.60;99.90
30037;DHT22;36325;51.512;-0.382;2023-02-26T02:56:27;2.60;99.90
30037;DHT22;36325;51.512;-0.382;2023-02-26T03:01:37;2.60;99.90
30037;DHT22;36325;51.512;-0.382;2023-02-26T03:04:08;2.70;99.90
30037;DHT22;36325;51.512;-0.382;2023-02-26T03:06:36;4.30;99.90
30037;DHT22;36325;51.512;-0.382;2023-02-26T03:09:04;2.70;99.90
30037;DHT22;36325;51.512;-0.382;2023-02-26T03:11:32;2.80;99.90
30037;DHT22;36325;51.512;-0.382;2023-02-26T03:14:00;2.90;99.90
30037;DHT22;36325;51.512;-0.382;2023-02-26T03:19:27;2.90;99.90
30037;DHT22;36325;51.512;-0.382;2023-02-26T03:25:18;3.00;99.90
30037;DHT22;36325;51.512;-0.382;2023-02-26T03:28:07;3.10;99.90
30037;DHT22;36325;51.512;-0.382;2023-02-26T03:36:23;3.30;99.90
30037;DHT22;36325;51.512;-0.382;2023-02-26T03:39:06;3.30;99.90
30037;DHT22;36325;51.512;-0.382;2023-02-26T03:41:43;3.30;99.90
30037;DHT22;36325;51.512;-0.382;2023-02-26T03:47:15;3.40;99.90
30037;DHT22;36325;51.512;-0.382;2023-02-26T03:49:49;3.40;99.90
30037;DHT22;36325;51.512;-0.382;2023-02-26T03:52:22;3.30;99.90
30037;DHT22;36325;51.512;-0.382;2023-02-26T03:57:48;3.30;99.90
30037;DHT22;36325;51.512;-0.382;2023-02-26T04:00:37;3.20;99.90
30037;DHT22;36325;51.512;-0.382;2023-02-26T04:05:49;3.10;99.90
30037;DHT22;36325;51.512;-0.382;2023-02-26T04:08:20;3.10;99.90
30037;DHT22;36325;51.512;-0.382;2023-02-26T04:10:55;3.00;99.90
30037;DHT22;36325;51.512;-0.382;2023-02-26T04:13:23;3.00;99.90
30037;DHT22;36325;51.512;-0.382;2023-02-26T04:15:51;2.90;99.90
30037;DHT22;36325;51.512;-0.382;2023-02-26T04:18:19;2.90;99.90
30037;DHT22;36325;51.512;-0.382;2023-02-26T04:20:46;2.90;99.90
30037;DHT22;36325;51.512;-0.382;2023-02-26T04:23:13;2.80;99.90
30037;DHT22;36325;51.512;-0.382;2023-02-26T04:25:41;2.80;99.90
30037;DHT22;36325;51.512;-0.382;2023-02-26T04:28:09;2.70;99.90
30037;DHT22;36325;51.512;-0.382;2023-02-26T04:30:37;2.70;99.90
30037;DHT22;36325;51.512;-0.382;2023-02-26T04:33:07;2.70;99.90
30037;DHT22;36325;51.512;-0.382;2023-02-26T04:35:34;2.70;99.90
30037;DHT22;36325;51.512;-0.382;2023-02-26T04:38:01;2.70;99.90
30037;DHT22;36325;51.512;-0.382;2023-02-26T04:40:29;2.70;99.90
30037;DHT22;36325;51.512;-0.382;2023-02-26T04:42:56;2.70;99.90
30037;DHT22;36325;51.512;-0.382;2023-02-26T04:45:26;2.70;99.90
30037;DHT22;36325;51.512;-0.382;2023-02-26T04:47:53;2.70;99.90
30037;DHT22;36325;51.512;-0.382;2023-02-26T04:50:20;2.70;99.90
30037;DHT22;36325;51.512;-0.382;2023-02-26T04:55:19;2.70;99.90
30037;DHT22;36325;51.512;-0.382;2023-02-26T04:57:47;2.70;99.90
30037;DHT22;36325;51.512;-0.382;2023-02-26T05:00:14;2.60;99.90
30037;DHT22;36325;51.512;-0.382;2023-02-26T05:02:42;2.60;99.90
30037;DHT22;36325;51.512;-0.382;2023-02-26T05:05:09;2.50;99.90
30037;DHT22;36325;51.512;-0.382;2023-02-26T05:07:37;2.50;99.90
30037;DHT22;36325;51.512;-0.382;2023-02-26T05:10:06;2.50;99.90
30037;DHT22;36325;51.512;-0.382;2023-02-26T05:12:33;2.50;99.90
30037;DHT22;36325;51.512;-0.382;2023-02-26T05:17:28;2.40;99.90
30037;DHT22;36325;51.512;-0.382;2023-02-26T05:19:56;2.40;99.90
30037;DHT22;36325;51.512;-0.382;2023-02-26T05:22:23;2.40;99.90
30037;DHT22;36325;51.512;-0.382;2023-02-26T05:24:50;2.40;99.90
30037;DHT22;36325;51.512;-0.382;2023-02-26T05:27:18;2.40;99.90
30037;DHT22;36325;51.512;-0.382;2023-02-26T05:29:46;2.40;99.90
30037;DHT22;36325;51.512;-0.382;2023-02-26T05:32:14;2.30;99.90
30037;DHT22;36325;51.512;-0.382;2023-02-26T05:34:42;2.30;99.90
30037;DHT22;36325;51.512;-0.382;2023-02-26T05:37:09;2.30;99.90
30037;DHT22;36325;51.512;-0.382;2023-02-26T05:39:36;2.30;99.90
30037;DHT22;36325;51.512;-0.382;2023-02-26T05:42:03;2.30;99.90
30037;DHT22;36325;51.512;-0.382;2023-02-26T05:44:31;2.30;99.90
30037;DHT22;36325;51.512;-0.382;2023-02-26T05:46:58;2.30;99.90
30037;DHT22;36325;51.512;-0.382;2023-02-26T05:49:25;2.30;99.90
30037;DHT22;36325;51.512;-0.382;2023-02-26T05:51:53;2.30;99.90
30037;DHT22;36325;51.512;-0.382;2023-02-26T05:54:20;2.30;99.90
30037;DHT22;36325;51.512;-0.382;2023-02-26T05:56:47;2.30;99.90
30037;DHT22;36325;51.512;-0.382;2023-02-26T05:59:14;2.30;99.90
30037;DHT22;36325;51.512;-0.382;2023-02-26T06:01:42;2.20;99.90
30037;DHT22;36325;51.512;-0.382;2023-02-26T06:04:09;2.20;99.90
30037;DHT22;36325;51.512;-0.382;2023-02-26T06:06:36;2.20;99.90
30037;DHT22;36325;51.512;-0.382;2023-02-26T06:09:04;2.20;99.90
30037;DHT22;36325;51.512;-0.382;2023-02-26T06:11:31;2.20;99.90
30037;DHT22;36325;51.512;-0.382;2023-02-26T06:14:00;2.20;99.90
30037;DHT22;36325;51.512;-0.382;2023-02-26T06:16:27;2.20;99.90
30037;DHT22;36325;51.512;-0.382;2023-02-26T06:18:55;2.20;99.90
30037;DHT22;36325;51.512;-0.382;2023-02-26T06:21:22;2.20;99.90
30037;DHT22;36325;51.512;-0.382;2023-02-26T06:23:49;2.20;99.90
30037;DHT22;36325;51.512;-0.382;2023-02-26T06:28:44;2.20;99.90
30037;DHT22;36325;51.512;-0.382;2023-02-26T06:31:11;2.20;99.90
30037;DHT22;36325;51.512;-0.382;2023-02-26T06:33:39;2.20;99.90
30037;DHT22;36325;51.512;-0.382;2023-02-26T06:36:06;2.20;99.90
30037;DHT22;36325;51.512;-0.382;2023-02-26T06:38:34;2.20;99.90
30037;DHT22;36325;51.512;-0.382;2023-02-26T06:41:01;2.30;99.90
30037;DHT22;36325;51.512;-0.382;2023-02-26T06:43:28;2.30;99.90
30037;DHT22;36325;51.512;-0.382;2023-02-26T06:45:58;2.30;99.90
30037;DHT22;36325;51.512;-0.382;2023-02-26T06:48:26;2.30;99.90
30037;DHT22;36325;51.512;-0.382;2023-02-26T06:50:53;2.30;99.90
30037;DHT22;36325;51.512;-0.382;2023-02-26T06:53:20;2.40;99.90
30037;DHT22;36325;51.512;-0.382;2023-02-26T06:55:50;2.50;99.90
30037;DHT22;36325;51.512;-0.382;2023-02-26T06:58:19;2.40;99.90
30037;DHT22;36325;51.512;-0.382;2023-02-26T07:00:46;2.50;99.90
30037;DHT22;36325;51.512;-0.382;2023-02-26T07:03:15;2.50;99.90
30037;DHT22;36325;51.512;-0.382;2023-02-26T07:05:44;2.60;99.90
30037;DHT22;36325;51.512;-0.382;2023-02-26T07:08:12;2.60;99.90
30037;DHT22;36325;51.512;-0.382;2023-02-26T07:10:40;2.60;99.90
30037;DHT22;36325;51.512;-0.382;2023-02-26T07:13:07;2.60;99.90
30037;DHT22;36325;51.512;-0.382;2023-02-26T07:15:35;2.70;99.90
30037;DHT22;36325;51.512;-0.382;2023-02-26T07:20:30;2.70;99.90
30037;DHT22;36325;51.512;-0.382;2023-02-26T07:22:58;2.70;99.90
30037;DHT22;36325;51.512;-0.382;2023-02-26T07:25:26;3.00;99.90
30037;DHT22;36325;51.512;-0.382;2023-02-26T07:35:17;2.80;99.90
30037;DHT22;36325;51.512;-0.382;2023-02-26T07:37:44;2.80;99.90
30037;DHT22;36325;51.512;-0.382;2023-02-26T07:40:12;2.90;99.90
30037;DHT22;36325;51.512;-0.382;2023-02-26T07:42:40;2.90;99.90
30037;DHT22;36325;51.512;-0.382;2023-02-26T07:45:07;3.00;99.90
30037;DHT22;36325;51.512;-0.382;2023-02-26T07:47:35;3.00;99.90
30037;DHT22;36325;51.512;-0.382;2023-02-26T07:50:03;3.00;99.90
30037;DHT22;36325;51.512;-0.382;2023-02-26T08:04:49;4.30;99.90
30037;DHT22;36325;51.512;-0.382;2023-02-26T08:07:17;4.50;99.90
30037;DHT22;36325;51.512;-0.382;2023-02-26T08:12:12;4.70;99.90
30037;DHT22;36325;51.512;-0.382;2023-02-26T08:14:39;5.30;99.90
30037;DHT22;36325;51.512;-0.382;2023-02-26T08:17:09;5.30;99.90
30037;DHT22;36325;51.512;-0.382;2023-02-26T08:24:34;5.70;99.90
30037;DHT22;36325;51.512;-0.382;2023-02-26T08:27:01;5.70;99.90
30037;DHT22;36325;51.512;-0.382;2023-02-26T08:29:28;5.70;99.90
30037;DHT22;36325;51.512;-0.382;2023-02-26T08:34:23;5.70;99.90
30037;DHT22;36325;51.512;-0.382;2023-02-26T08:36:50;5.70;99.90
30037;DHT22;36325;51.512;-0.382;2023-02-26T08:41:45;5.80;99.90
30037;DHT22;36325;51.512;-0.382;2023-02-26T08:44:12;5.90;99.90
30037;DHT22;36325;51.512;-0.382;2023-02-26T08:49:07;6.20;99.90
30037;DHT22;36325;51.512;-0.382;2023-02-26T08:54:02;6.50;99.90
30037;DHT22;36325;51.512;-0.382;2023-02-26T09:06:21;7.40;99.90
30037;DHT22;36325;51.512;-0.382;2023-02-26T09:11:17;8.30;99.90
30037;DHT22;36325;51.512;-0.382;2023-02-26T09:18:40;9.50;99.90
30037;DHT22;36325;51.512;-0.382;2023-02-26T09:21:07;9.80;99.90
30037;DHT22;36325;51.512;-0.382;2023-02-26T09:26:02;10.20;99.90
30037;DHT22;36325;51.512;-0.382;2023-02-26T09:28:30;10.50;99.90
30037;DHT22;36325;51.512;-0.382;2023-02-26T09:30:57;10.70;99.90
30037;DHT22;36325;51.512;-0.382;2023-02-26T09:33:26;10.80;99.90
30037;DHT22;36325;51.512;-0.382;2023-02-26T09:35:53;10.90;99.90
30037;DHT22;36325;51.512;-0.382;2023-02-26T09:51:50;11.70;99.90
30037;DHT22;36325;51.512;-0.382;2023-02-26T09:54:26;11.80;99.90
30037;DHT22;36325;51.512;-0.382;2023-02-26T09:56:57;12.00;99.90
30037;DHT22;36325;51.512;-0.382;2023-02-26T09:59:31;12.20;99.90
30037;DHT22;36325;51.512;-0.382;2023-02-26T10:02:28;12.20;99.90
30037;DHT22;36325;51.512;-0.382;2023-02-26T10:12:42;12.30;99.90
30037;DHT22;36325;51.512;-0.382;2023-02-26T10:15:27;12.40;99.90
30037;DHT22;36325;51.512;-0.382;2023-02-26T10:18:08;12.40;99.90
30037;DHT22;36325;51.512;-0.382;2023-02-26T10:21:00;12.50;99.90
30037;DHT22;36325;51.512;-0.382;2023-02-26T10:23:52;12.60;99.90
30037;DHT22;36325;51.512;-0.382;2023-02-26T10:26:29;12.50;99.90
30037;DHT22;36325;51.512;-0.382;2023-02-26T10:34:35;12.20;99.90
30037;DHT22;36325;51.512;-0.382;2023-02-26T10:37:19;12.00;99.90
30037;DHT22;36325;51.512;-0.382;2023-02-26T10:39:52;12.10;99.90
30037;DHT22;36325;51.512;-0.382;2023-02-26T10:42:28;12.10;99.90
30037;DHT22;36325;51.512;-0.382;2023-02-26T10:50:58;11.10;99.90
30037;DHT22;36325;51.512;-0.382;2023-02-26T10:53:29;10.90;99.90
30037;DHT22;36325;51.512;-0.382;2023-02-26T10:56:24;10.40;99.90
30037;DHT22;36325;51.512;-0.382;2023-02-26T10:58:52;9.90;99.90
30037;DHT22;36325;51.512;-0.382;2023-02-26T11:01:23;9.80;99.90
30037;DHT22;36325;51.512;-0.382;2023-02-26T11:04:04;10.40;99.90
30037;DHT22;36325;51.512;-0.382;2023-02-26T11:07:02;10.90;99.90
30037;DHT22;36325;51.512;-0.382;2023-02-26T11:09:32;10.90;99.90
30037;DHT22;36325;51.512;-0.382;2023-02-26T11:12:11;11.10;99.90
30037;DHT22;36325;51.512;-0.382;2023-02-26T11:14:39;11.50;99.90
30037;DHT22;36325;51.512;-0.382;2023-02-26T11:17:18;12.50;99.90
30037;DHT22;36325;51.512;-0.382;2023-02-26T11:19:51;13.30;99.90
30037;DHT22;36325;51.512;-0.382;2023-02-26T11:22:21;13.80;99.90
30037;DHT22;36325;51.512;-0.382;2023-02-26T11:24:50;14.50;99.90
30037;DHT22;36325;51.512;-0.382;2023-02-26T11:27:25;15.10;99.90
30037;DHT22;36325;51.512;-0.382;2023-02-26T11:29:56;15.80;99.90
30037;DHT22;36325;51.512;-0.382;2023-02-26T11:32:35;19.30;99.90
30037;DHT22;36325;51.512;-0.382;2023-02-26T11:35:06;17.40;99.90
30037;DHT22;36325;51.512;-0.382;2023-02-26T11:37:39;17.10;99.90
30037;DHT22;36325;51.512;-0.382;2023-02-26T11:40:31;17.10;99.90
30037;DHT22;36325;51.512;-0.382;2023-02-26T11:43:07;16.00;99.70
30037;DHT22;36325;51.512;-0.382;2023-02-26T11:45:37;14.90;99.60
30037;DHT22;36325;51.512;-0.382;2023-02-26T11:48:12;13.80;99.40
30037;DHT22;36325;51.512;-0.382;2023-02-26T11:50:43;12.50;99.90
30037;DHT22;36325;51.512;-0.382;2023-02-26T11:53:25;12.30;99.90
30037;DHT22;36325;51.512;-0.382;2023-02-26T11:55:58;12.40;99.90
30037;DHT22;36325;51.512;-0.382;2023-02-26T11:58:27;12.10;99.90
30037;DHT22;36325;51.512;-0.382;2023-02-26T12:00:58;12.10;99.90
30037;DHT22;36325;51.512;-0.382;2023-02-26T12:03:30;12.10;99.90
30037;DHT22;36325;51.512;-0.382;2023-02-26T12:05:59;12.50;99.90
30037;DHT22;36325;51.512;-0.382;2023-02-26T12:08:33;11.90;99.90
30037;DHT22;36325;51.512;-0.382;2023-02-26T12:19:34;10.80;99.90
30037;DHT22;36325;51.512;-0.382;2023-02-26T12:32:48;10.40;99.90
30037;DHT22;36325;51.512;-0.382;2023-02-26T12:38:34;10.30;99.90
30037;DHT22;36325;51.512;-0.382;2023-02-26T12:43:54;10.30;99.90
30037;DHT22;36325;51.512;-0.382;2023-02-26T12:55:07;10.00;99.90
30037;DHT22;36325;51.512;-0.382;2023-02-26T12:57:44;9.60;99.90
30037;DHT22;36325;51.512;-0.382;2023-02-26T13:00:16;10.00;99.90
30037;DHT22;36325;51.512;-0.382;2023-02-26T13:03:03;10.00;99.90
30037;DHT22;36325;51.512;-0.382;2023-02-26T13:14:18;9.80;99.90
30037;DHT22;36325;51.512;-0.382;2023-02-26T13:17:14;9.90;99.90
30037;DHT22;36325;51.512;-0.382;2023-02-26T13:19:48;9.80;99.90
30037;DHT22;36325;51.512;-0.382;2023-02-26T13:22:25;9.80;99.90
30037;DHT22;36325;51.512;-0.382;2023-02-26T13:25:07;9.80;99.90
30037;DHT22;36325;51.512;-0.382;2023-02-26T13:27:43;9.80;99.90
30037;DHT22;36325;51.512;-0.382;2023-02-26T13:32:58;9.80;99.90
30037;DHT22;36325;51.512;-0.382;2023-02-26T13:35:38;9.70;99.90
30037;DHT22;36325;51.512;-0.382;2023-02-26T13:41:04;9.70;99.90
30037;DHT22;36325;51.512;-0.382;2023-02-26T13:51:44;10.10;99.90
30037;DHT22;36325;51.512;-0.382;2023-02-26T13:56:48;10.20;99.90
30037;DHT22;36325;51.512;-0.382;2023-02-26T13:59:58;10.40;99.90
30037;DHT22;36325;51.512;-0.382;2023-02-26T14:02:36;10.70;99.90
30037;DHT22;36325;51.512;-0.382;2023-02-26T14:05:25;10.70;99.90
30037;DHT22;36325;51.512;-0.382;2023-02-26T14:08:19;10.70;99.90
30037;DHT22;36325;51.512;-0.382;2023-02-26T14:11:03;11.00;99.90
30037;DHT22;36325;51.512;-0.382;2023-02-26T14:13:40;11.40;99.90
30037;DHT22;36325;51.512;-0.382;2023-02-26T14:16:27;11.90;99.90
30037;DHT22;36325;51.512;-0.382;2023-02-26T14:19:25;14.00;99.90
30037;DHT22;36325;51.512;-0.382;2023-02-26T14:22:12;15.10;99.90
30037;DHT22;36325;51.512;-0.382;2023-02-26T14:25:09;14.90;99.90
30037;DHT22;36325;51.512;-0.382;2023-02-26T14:27:43;14.60;99.90
30037;DHT22;36325;51.512;-0.382;2023-02-26T14:30:28;14.00;99.90
30037;DHT22;36325;51.512;-0.382;2023-02-26T14:35:40;13.50;99.90
30037;DHT22;36325;51.512;-0.382;2023-02-26T14:38:28;13.40;99.90
30037;DHT22;36325;51.512;-0.382;2023-02-26T14:44:09;12.40;99.90
30037;DHT22;36325;51.512;-0.382;2023-02-26T14:46:38;12.00;99.90
30037;DHT22;36325;51.512;-0.382;2023-02-26T14:49:13;11.50;99.90
30037;DHT22;36325;51.512;-0.382;2023-02-26T15:00:11;12.10;99.90
30037;DHT22;36325;51.512;-0.382;2023-02-26T15:03:11;11.90;99.90
30037;DHT22;36325;51.512;-0.382;2023-02-26T15:25:39;12.80;99.90
30037;DHT22;36325;51.512;-0.382;2023-02-26T15:28:29;13.10;99.60
30037;DHT22;36325;51.512;-0.382;2023-02-26T15:30:58;12.40;99.50
30037;DHT22;36325;51.512;-0.382;2023-02-26T15:33:28;12.30;99.80
30037;DHT22;36325;51.512;-0.382;2023-02-26T15:35:56;11.40;99.90
30037;DHT22;36325;51.512;-0.382;2023-02-26T15:38:24;10.90;99.90
30037;DHT22;36325;51.512;-0.382;2023-02-26T15:40:55;10.90;99.90
30037;DHT22;36325;51.512;-0.382;2023-02-26T15:43:26;10.50;99.90
30037;DHT22;36325;51.512;-0.382;2023-02-26T15:45:56;10.50;99.90
30037;DHT22;36325;51.512;-0.382;2023-02-26T15:48:31;10.40;99.90
30037;DHT22;36325;51.512;-0.382;2023-02-26T15:51:02;11.40;99.90
30037;DHT22;36325;51.512;-0.382;2023-02-26T15:56:00;14.50;99.90
30037;DHT22;36325;51.512;-0.382;2023-02-26T15:58:39;13.90;99.40
30037;DHT22;36325;51.512;-0.382;2023-02-26T16:01:18;13.90;99.90
30037;DHT22;36325;51.512;-0.382;2023-02-26T16:06:17;11.80;99.90
30037;DHT22;36325;51.512;-0.382;2023-02-26T16:08:48;11.10;99.90
30037;DHT22;36325;51.512;-0.382;2023-02-26T16:11:16;12.00;99.90
30037;DHT22;36325;51.512;-0.382;2023-02-26T16:13:44;10.00;99.90
30037;DHT22;36325;51.512;-0.382;2023-02-26T16:16:22;9.70;99.90
30037;DHT22;36325;51.512;-0.382;2023-02-26T16:18:52;9.40;99.90
30037;DHT22;36325;51.512;-0.382;2023-02-26T16:21:33;9.20;99.90
30037;DHT22;36325;51.512;-0.382;2023-02-26T16:24:05;9.10;99.90
30037;DHT22;36325;51.512;-0.382;2023-02-26T16:26:37;9.10;99.90
30037;DHT22;36325;51.512;-0.382;2023-02-26T16:29:17;9.30;99.90
30037;DHT22;36325;51.512;-0.382;2023-02-26T16:31:53;11.30;99.90
30037;DHT22;36325;51.512;-0.382;2023-02-26T16:34:38;11.50;99.90
30037;DHT22;36325;51.512;-0.382;2023-02-26T16:37:22;12.50;99.90
30037;DHT22;36325;51.512;-0.382;2023-02-26T16:48:19;13.40;99.90
30037;DHT22;36325;51.512;-0.382;2023-02-26T16:50:56;13.40;99.90
30037;DHT22;36325;51.512;-0.382;2023-02-26T16:53:35;13.40;99.90
30037;DHT22;36325;51.512;-0.382;2023-02-26T16:56:03;13.40;99.90
30037;DHT22;36325;51.512;-0.382;2023-02-26T16:58:31;13.50;99.90
30037;DHT22;36325;51.512;-0.382;2023-02-26T17:01:10;13.50;99.90
30037;DHT22;36325;51.512;-0.382;2023-02-26T17:03:39;13.60;99.90
30037;DHT22;36325;51.512;-0.382;2023-02-26T17:06:12;13.40;99.90
30037;DHT22;36325;51.512;-0.382;2023-02-26T17:08:56;13.10;99.90
30037;DHT22;36325;51.512;-0.382;2023-02-26T17:11:37;12.70;99.90
30037;DHT22;36325;51.512;-0.382;2023-02-26T17:16:45;12.40;99.90
30037;DHT22;36325;51.512;-0.382;2023-02-26T17:19:13;12.00;99.90
30037;DHT22;36325;51.512;-0.382;2023-02-26T17:21:53;11.60;99.90
30037;DHT22;36325;51.512;-0.382;2023-02-26T17:24:28;11.40;99.90
30037;DHT22;36325;51.512;-0.382;2023-02-26T17:26:56;11.10;99.90
30037;DHT22;36325;51.512;-0.382;2023-02-26T17:29:44;10.80;99.90
30037;DHT22;36325;51.512;-0.382;2023-02-26T17:32:17;7.60;99.90
30037;DHT22;36325;51.512;-0.382;2023-02-26T17:37:13;9.50;99.90
30037;DHT22;36325;51.512;-0.382;2023-02-26T17:39:43;9.20;99.90
30037;DHT22;36325;51.512;-0.382;2023-02-26T17:42:13;8.90;99.90
30037;DHT22;36325;51.512;-0.382;2023-02-26T17:47:21;8.40;99.90
30037;DHT22;36325;51.512;-0.382;2023-02-26T17:49:51;8.30;99.90
30037;DHT22;36325;51.512;-0.382;2023-02-26T17:57:19;7.50;99.90
30037;DHT22;36325;51.512;-0.382;2023-02-26T18:02:17;7.40;99.90
30037;DHT22;36325;51.512;-0.382;2023-02-26T18:04:48;7.20;99.90
30037;DHT22;36325;51.512;-0.382;2023-02-26T18:07:16;7.00;99.90
30037;DHT22;36325;51.512;-0.382;2023-02-26T18:09:45;6.90;99.90
30037;DHT22;36325;51.512;-0.382;2023-02-26T18:12:18;6.80;99.90
30037;DHT22;36325;51.512;-0.382;2023-02-26T18:14:46;6.80;99.90
30037;DHT22;36325;51.512;-0.382;2023-02-26T18:17:18;6.70;99.90
30037;DHT22;36325;51.512;-0.382;2023-02-26T18:25:14;6.30;99.90
30037;DHT22;36325;51.512;-0.382;2023-02-26T18:27:42;6.30;99.90
30037;DHT22;36325;51.512;-0.382;2023-02-26T18:30:21;6.30;99.90
30037;DHT22;36325;51.512;-0.382;2023-02-26T18:32:49;6.10;99.90
30037;DHT22;36325;51.512;-0.382;2023-02-26T18:35:16;6.10;99.90
30037;DHT22;36325;51.512;-0.382;2023-02-26T18:37:45;6.00;99.90
30037;DHT22;36325;51.512;-0.382;2023-02-26T18:40:19;6.00;99.90
30037;DHT22;36325;51.512;-0.382;2023-02-26T18:42:49;6.00;99.90
30037;DHT22;36325;51.512;-0.382;2023-02-26T18:45:21;5.90;99.90
30037;DHT22;36325;51.512;-0.382;2023-02-26T18:50:20;5.20;99.90
30037;DHT22;36325;51.512;-0.382;2023-02-26T18:57:42;5.60;99.90
30037;DHT22;36325;51.512;-0.382;2023-02-26T19:00:12;5.50;99.90
30037;DHT22;36325;51.512;-0.382;2023-02-26T19:02:43;5.50;99.90
30037;DHT22;36325;51.512;-0.382;2023-02-26T19:05:12;5.40;99.90
30037;DHT22;36325;51.512;-0.382;2023-02-26T19:12:41;5.30;99.90
30037;DHT22;36325;51.512;-0.382;2023-02-26T19:15:09;5.20;99.90
30037;DHT22;36325;51.512;-0.382;2023-02-26T19:17:41;5.10;99.90
30037;DHT22;36325;51.512;-0.382;2023-02-26T19:20:10;5.10;99.90
30037;DHT22;36325;51.512;-0.382;2023-02-26T19:22:38;5.10;99.90
30037;DHT22;36325;51.512;-0.382;2023-02-26T19:25:06;5.10;99.90
30037;DHT22;36325;51.512;-0.382;2023-02-26T19:30:02;4.90;99.90
30037;DHT22;36325;51.512;-0.382;2023-02-26T19:32:30;4.90;99.90
30037;DHT22;36325;51.512;-0.382;2023-02-26T19:34:57;4.90;99.90
30037;DHT22;36325;51.512;-0.382;2023-02-26T19:39:53;4.80;99.90
30037;DHT22;36325;51.512;-0.382;2023-02-26T19:47:15;4.60;99.90
30037;DHT22;36325;51.512;-0.382;2023-02-26T19:54:39;4.50;99.90
30037;DHT22;36325;51.512;-0.382;2023-02-26T20:04:31;4.40;99.90
30037;DHT22;36325;51.512;-0.382;2023-02-26T20:07:02;4.40;99.90
30037;DHT22;36325;51.512;-0.382;2023-02-26T20:09:30;4.30;99.90
30037;DHT22;36325;51.512;-0.382;2023-02-26T20:11:57;4.30;99.90
30037;DHT22;36325;51.512;-0.382;2023-02-26T20:14:25;4.30;99.90
30037;DHT22;36325;51.512;-0.382;2023-02-26T20:16:52;4.20;99.90
30037;DHT22;36325;51.512;-0.382;2023-02-26T20:19:19;4.20;99.90
30037;DHT22;36325;51.512;-0.382;2023-02-26T20:21:47;4.20;99.90
30037;DHT22;36325;51.512;-0.382;2023-02-26T20:24:15;4.20;99.90
30037;DHT22;36325;51.512;-0.382;2023-02-26T20:26:44;4.10;99.90
30037;DHT22;36325;51.512;-0.382;2023-02-26T20:29:12;4.10;99.90
30037;DHT22;36325;51.512;-0.382;2023-02-26T20:31:39;4.10;99.90
30037;DHT22;36325;51.512;-0.382;2023-02-26T20:39:02;4.00;99.90
30037;DHT22;36325;51.512;-0.382;2023-02-26T20:41:29;4.00;99.90
30037;DHT22;36325;51.512;-0.382;2023-02-26T20:43:56;3.90;99.90
30037;DHT22;36325;51.512;-0.382;2023-02-26T20:46:24;3.90;99.90
30037;DHT22;36325;51.512;-0.382;2023-02-26T20:53:47;3.90;99.90
30037;DHT22;36325;51.512;-0.382;2023-02-26T20:56:14;3.90;99.90
30037;DHT22;36325;51.512;-0.382;2023-02-26T20:58:43;3.90;99.90
30037;DHT22;36325;51.512;-0.382;2023-02-26T21:01:11;3.90;99.90
30037;DHT22;36325;51.512;-0.382;2023-02-26T21:03:39;3.80;99.90
30037;DHT22;36325;51.512;-0.382;2023-02-26T21:06:06;3.90;99.90
30037;DHT22;36325;51.512;-0.382;2023-02-26T21:08:34;3.80;99.90
30037;DHT22;36325;51.512;-0.382;2023-02-26T21:11:01;3.80;99.90
30037;DHT22;36325;51.512;-0.382;2023-02-26T21:15:58;3.80;99.90
30037;DHT22;36325;51.512;-0.382;2023-02-26T21:20:55;3.80;99.90
30037;DHT22;36325;51.512;-0.382;2023-02-26T21:23:23;3.70;99.90
30037;DHT22;36325;51.512;-0.382;2023-02-26T21:28:22;3.70;99.90
30037;DHT22;36325;51.512;-0.382;2023-02-26T21:30:51;3.70;99.90
30037;DHT22;36325;51.512;-0.382;2023-02-26T21:33:18;3.60;99.90
30037;DHT22;36325;51.512;-0.382;2023-02-26T21:35:50;3.60;99.90
30037;DHT22;36325;51.512;-0.382;2023-02-26T21:38:18;3.60;99.90
30037;DHT22;36325;51.512;-0.382;2023-02-26T21:40:45;3.50;99.90
30037;DHT22;36325;51.512;-0.382;2023-02-26T21:43:14;3.50;99.90
30037;DHT22;36325;51.512;-0.382;2023-02-26T21:45:43;3.50;99.90